createdAt,value
2019-05-28T00:00:41.744Z,6.70
2019-05-28T00:03:10.393Z,7.33
2019-05-28T00:05:38.998Z,6.83
2019-05-28T00:08:07.792Z,7.10
2019-05-28T00:10:36.462Z,7.75
2019-05-28T00:13:05.127Z,7.40
2019-05-28T00:15:33.838Z,7.00
2019-05-28T00:18:02.549Z,7.25
2019-05-28T00:20:31.180Z,7.25
2019-05-28T00:22:59.823Z,6.78
2019-05-28T00:25:29.515Z,6.62
2019-05-28T00:27:58.109Z,7.67
2019-05-28T00:30:27.003Z,7.35
2019-05-28T00:32:55.566Z,7.25
2019-05-28T00:35:24.194Z,7.67
2019-05-28T00:37:52.860Z,6.72
2019-05-28T00:40:21.690Z,7.35
2019-05-28T00:42:50.332Z,7.08
2019-05-28T00:45:19.362Z,7.37
2019-05-28T00:47:47.963Z,7.17
2019-05-28T00:50:17.259Z,7.92
2019-05-28T00:52:45.929Z,7.65
2019-05-28T00:55:14.979Z,8.03
2019-05-28T00:57:46.144Z,8.88
2019-05-28T01:00:15.777Z,8.63
2019-05-28T01:02:44.434Z,7.78
2019-05-28T01:05:13.451Z,7.83
2019-05-28T01:07:42.249Z,8.20
2019-05-28T01:10:12.226Z,8.58
2019-05-28T01:12:40.951Z,8.23
2019-05-28T01:15:10.173Z,8.50
2019-05-28T01:17:38.838Z,9.30
2019-05-28T01:20:08.950Z,9.18
2019-05-28T01:22:37.842Z,8.08
2019-05-28T01:25:07.415Z,7.87
2019-05-28T01:27:36.314Z,8.20
2019-05-28T01:30:10.213Z,8.28
2019-05-28T01:32:38.882Z,8.63
2019-05-28T01:35:07.812Z,8.73
2019-05-28T01:37:36.414Z,9.10
2019-05-28T01:40:08.003Z,9.73
2019-05-28T01:42:36.736Z,8.93
2019-05-28T01:45:06.904Z,8.25
2019-05-28T01:47:35.611Z,9.33
2019-05-28T01:50:06.140Z,7.42
2019-05-28T01:52:34.810Z,7.50
2019-05-28T01:55:05.007Z,8.45
2019-05-28T01:57:33.544Z,8.03
2019-05-28T02:00:02.163Z,8.30
2019-05-28T02:02:30.750Z,8.28
2019-05-28T02:04:59.417Z,7.83
2019-05-28T02:07:28.003Z,7.37
2019-05-28T02:09:56.650Z,8.83
2019-05-28T02:12:25.223Z,8.00
2019-05-28T02:14:53.843Z,8.18
2019-05-28T02:17:22.495Z,6.75
2019-05-28T02:19:51.105Z,7.65
2019-05-28T02:22:19.802Z,7.45
2019-05-28T02:24:48.487Z,7.40
2019-05-28T02:27:17.142Z,8.20
2019-05-28T02:29:45.855Z,7.87
2019-05-28T02:32:14.654Z,7.72
2019-05-28T02:34:43.234Z,7.47
2019-05-28T02:37:11.868Z,7.97
2019-05-28T02:39:40.474Z,7.15
2019-05-28T02:42:09.097Z,6.45
2019-05-28T02:44:37.765Z,6.45
2019-05-28T02:47:06.322Z,6.45
2019-05-28T02:49:35.001Z,6.28
2019-05-28T02:52:04.300Z,7.08
2019-05-28T02:54:33.139Z,7.00
2019-05-28T02:57:02.726Z,5.87
2019-05-28T02:59:34.720Z,5.72
2019-05-28T03:02:04.572Z,5.47
2019-05-28T03:04:35.765Z,5.75
2019-05-28T03:07:06.670Z,6.97
2019-05-28T03:09:38.354Z,6.03
2019-05-28T03:12:06.905Z,6.15
2019-05-28T03:14:35.551Z,6.83
2019-05-28T03:17:04.803Z,7.03
2019-05-28T03:19:34.905Z,5.92
2019-05-28T03:22:04.348Z,5.70
2019-05-28T03:24:34.916Z,5.78
2019-05-28T03:27:03.724Z,6.72
2019-05-28T03:29:32.426Z,5.40
2019-05-28T03:32:08.168Z,5.37
2019-05-28T03:34:31.486Z,5.53
2019-05-28T03:37:01.470Z,4.90
2019-05-28T03:39:31.516Z,4.62
2019-05-28T03:42:00.206Z,5.03
2019-05-28T03:44:28.899Z,4.83
2019-05-28T03:46:57.422Z,4.42
2019-05-28T03:49:26.035Z,4.35
2019-05-28T03:51:54.655Z,4.30
2019-05-28T03:54:23.247Z,4.92
2019-05-28T03:56:51.850Z,5.30
2019-05-28T03:59:20.486Z,4.20
2019-05-28T04:01:49.191Z,4.65
2019-05-28T04:04:17.926Z,4.62
2019-05-28T04:06:46.492Z,4.22
2019-05-28T04:09:15.201Z,4.67
2019-05-28T04:11:45.080Z,4.30
2019-05-28T04:14:14.337Z,4.10
2019-05-28T04:16:42.995Z,3.87
2019-05-28T04:19:11.666Z,4.15
2019-05-28T04:21:40.279Z,4.35
2019-05-28T04:24:08.849Z,4.90
2019-05-28T04:26:37.520Z,4.62
2019-05-28T04:29:06.347Z,4.20
2019-05-28T04:31:35.075Z,3.52
2019-05-28T04:34:03.722Z,3.83
2019-05-28T04:36:32.382Z,3.77
2019-05-28T04:39:01.078Z,4.15
2019-05-28T04:41:29.746Z,4.58
2019-05-28T04:43:58.320Z,3.92
2019-05-28T04:46:26.900Z,4.17
2019-05-28T04:48:55.495Z,4.50
2019-05-28T04:51:24.866Z,4.75
2019-05-28T04:53:53.437Z,4.33
2019-05-28T04:56:22.102Z,4.17
2019-05-28T04:58:50.673Z,4.08
2019-05-28T05:01:19.280Z,4.78
2019-05-28T05:03:47.913Z,4.33
2019-05-28T05:06:16.644Z,4.12
2019-05-28T05:08:45.205Z,4.50
2019-05-28T05:11:14.152Z,4.33
2019-05-28T05:13:42.705Z,4.47
2019-05-28T05:16:11.494Z,4.78
2019-05-28T05:18:40.112Z,5.45
2019-05-28T05:21:08.718Z,4.62
2019-05-28T05:23:37.393Z,6.33
2019-05-28T05:26:06.056Z,5.85
2019-05-28T05:28:34.820Z,5.17
2019-05-28T05:31:03.460Z,6.35
2019-05-28T05:33:32.066Z,5.78
2019-05-28T05:36:00.653Z,5.08
2019-05-28T05:38:29.258Z,5.92
2019-05-28T05:40:57.889Z,5.83
2019-05-28T05:43:26.547Z,6.22
2019-05-28T05:45:55.113Z,7.12
2019-05-28T05:48:23.858Z,6.50
2019-05-28T05:50:52.556Z,6.97
2019-05-28T05:53:21.315Z,6.15
2019-05-28T05:55:50.090Z,6.40
2019-05-28T05:58:18.742Z,5.97
2019-05-28T06:00:47.360Z,7.03
2019-05-28T06:03:15.993Z,7.47
2019-05-28T06:05:44.711Z,8.08
2019-05-28T06:08:13.308Z,18.48
2019-05-28T06:10:41.911Z,14.28
2019-05-28T06:13:10.487Z,12.85
2019-05-28T06:15:39.129Z,10.98
2019-05-28T06:18:08.029Z,19.07
2019-05-28T06:20:36.719Z,13.93
2019-05-28T06:23:05.412Z,11.08
2019-05-28T06:25:34.237Z,9.05
2019-05-28T06:28:02.810Z,11.00
2019-05-28T06:30:31.543Z,9.43
2019-05-28T06:33:00.134Z,8.55
2019-05-28T06:35:28.801Z,9.23
2019-05-28T06:37:57.407Z,7.60
2019-05-28T06:40:26.219Z,8.70
2019-05-28T06:42:54.867Z,8.48
2019-05-28T06:45:23.606Z,7.83
2019-05-28T06:47:52.209Z,7.42
2019-05-28T06:50:21.065Z,8.98
2019-05-28T06:52:49.648Z,9.28
2019-05-28T06:55:18.409Z,7.10
2019-05-28T06:57:47.006Z,7.45
2019-05-28T07:00:16.147Z,6.60
2019-05-28T07:02:45.002Z,6.47
2019-05-28T07:05:13.824Z,6.47
2019-05-28T07:07:42.423Z,6.22
2019-05-28T07:10:11.597Z,7.12
2019-05-28T07:12:40.214Z,6.17
2019-05-28T07:15:09.132Z,6.22
2019-05-28T07:17:37.830Z,5.58
2019-05-28T07:20:08.826Z,5.85
2019-05-28T07:22:37.484Z,6.15
2019-05-28T07:25:07.523Z,7.37
2019-05-28T07:27:36.186Z,6.85
2019-05-28T07:30:07.278Z,6.45
2019-05-28T07:32:36.160Z,6.60
2019-05-28T07:35:06.328Z,6.95
2019-05-28T07:37:35.058Z,5.25
2019-05-28T07:40:07.610Z,6.05
2019-05-28T07:42:36.288Z,5.62
2019-05-28T07:45:06.921Z,5.22
2019-05-28T07:47:35.691Z,6.15
2019-05-28T07:50:06.214Z,6.10
2019-05-28T07:52:34.853Z,5.72
2019-05-28T07:55:03.669Z,5.92
2019-05-28T07:57:32.263Z,6.65
2019-05-28T08:00:05.270Z,6.87
2019-05-28T08:02:31.139Z,6.37
2019-05-28T08:04:59.795Z,7.62
2019-05-28T08:07:28.564Z,8.00
2019-05-28T08:09:57.270Z,8.25
2019-05-28T08:12:26.059Z,9.28
2019-05-28T08:14:54.773Z,8.65
2019-05-28T08:17:23.409Z,8.45
2019-05-28T08:19:52.089Z,7.83
2019-05-28T08:22:20.696Z,8.38
2019-05-28T08:24:49.274Z,8.83
2019-05-28T08:27:17.937Z,9.30
2019-05-28T08:29:46.577Z,9.98
2019-05-28T08:32:15.293Z,9.30
2019-05-28T08:34:43.974Z,9.85
2019-05-28T08:37:12.687Z,9.35
2019-05-28T08:39:41.287Z,9.55
2019-05-28T08:42:10.059Z,10.15
2019-05-28T08:44:38.692Z,9.63
2019-05-28T08:47:07.361Z,9.48
2019-05-28T08:49:36.230Z,9.33
2019-05-28T08:52:05.211Z,10.03
2019-05-28T08:54:33.867Z,10.75
2019-05-28T08:57:02.507Z,13.05
2019-05-28T08:59:31.278Z,13.50
2019-05-28T09:01:59.870Z,13.60
2019-05-28T09:04:44.402Z,12.33
2019-05-28T09:07:13.035Z,13.50
2019-05-28T09:09:41.689Z,11.25
2019-05-28T09:12:10.430Z,10.35
2019-05-28T09:14:54.834Z,8.48
2019-05-28T09:17:09.651Z,7.25
2019-05-28T09:19:38.511Z,9.00
2019-05-28T09:22:07.222Z,7.55
2019-05-28T09:24:35.814Z,6.50
2019-05-28T09:27:04.720Z,7.55
2019-05-28T09:29:33.353Z,8.08
2019-05-28T09:32:02.027Z,7.85
2019-05-28T09:34:30.622Z,7.85
2019-05-28T09:36:59.227Z,7.58
2019-05-28T09:39:27.848Z,7.55
2019-05-28T09:41:56.514Z,7.67
2019-05-28T09:44:25.251Z,7.75
2019-05-28T09:46:54.393Z,8.83
2019-05-28T09:49:23.146Z,10.35
2019-05-28T09:51:51.836Z,7.22
2019-05-28T09:54:20.599Z,6.45
2019-05-28T09:56:49.576Z,6.08
2019-05-28T09:59:18.628Z,8.58
2019-05-28T10:01:47.505Z,6.67
2019-05-28T10:04:16.252Z,5.37
2019-05-28T10:06:44.901Z,5.72
2019-05-28T10:09:13.508Z,6.45
2019-05-28T10:11:42.135Z,4.95
2019-05-28T10:14:11.001Z,5.75
2019-05-28T10:16:39.671Z,6.00
2019-05-28T10:19:08.349Z,7.08
2019-05-28T10:21:37.154Z,5.90
2019-05-28T10:24:05.895Z,6.17
2019-05-28T10:26:34.601Z,7.30
2019-05-28T10:29:03.268Z,6.80
2019-05-28T10:31:31.958Z,4.58
2019-05-28T10:34:00.585Z,5.45
2019-05-28T10:36:36.029Z,5.67
2019-05-28T10:38:59.711Z,5.30
2019-05-28T10:41:28.308Z,5.90
2019-05-28T10:43:56.939Z,5.90
2019-05-28T10:46:25.545Z,6.70
2019-05-28T10:48:54.287Z,6.70
2019-05-28T10:51:22.900Z,7.37
2019-05-28T10:53:51.614Z,5.15
2019-05-28T10:56:20.411Z,5.67
2019-05-28T10:58:49.191Z,5.20
2019-05-28T11:01:17.869Z,4.72
2019-05-28T11:03:47.335Z,3.35
2019-05-28T11:06:16.095Z,3.50
2019-05-28T11:08:44.708Z,4.83
2019-05-28T11:11:13.351Z,3.58
2019-05-28T11:13:52.622Z,4.80
2019-05-28T11:16:12.326Z,4.22
2019-05-28T11:18:40.959Z,4.40
2019-05-28T11:21:10.229Z,5.50
2019-05-28T11:23:38.937Z,4.83
2019-05-28T11:26:07.674Z,5.03
2019-05-28T11:28:36.415Z,5.08
2019-05-28T11:31:05.299Z,5.20
2019-05-28T11:33:33.917Z,5.55
2019-05-28T11:36:02.492Z,5.92
2019-05-28T11:38:31.131Z,5.53
2019-05-28T11:40:59.812Z,6.65
2019-05-28T11:43:28.550Z,6.55
2019-05-28T11:45:57.289Z,7.05
2019-05-28T11:48:26.052Z,6.90
2019-05-28T11:50:54.791Z,7.28
2019-05-28T11:53:23.504Z,7.47
2019-05-28T11:55:52.499Z,8.10
2019-05-28T11:58:21.079Z,9.05
2019-05-28T12:00:49.822Z,8.98
2019-05-28T12:03:18.387Z,10.53
2019-05-28T12:05:47.098Z,8.73
2019-05-28T12:08:15.803Z,7.95
2019-05-28T12:10:44.463Z,9.43
2019-05-28T12:13:13.171Z,8.40
2019-05-28T12:15:41.870Z,7.75
2019-05-28T12:18:10.665Z,9.30
2019-05-28T12:20:39.417Z,9.65
2019-05-28T12:23:11.628Z,10.20
2019-05-28T12:25:39.750Z,8.70
2019-05-28T12:28:08.387Z,9.65
2019-05-28T12:30:37.147Z,9.50
2019-05-28T12:33:05.903Z,9.40
2019-05-28T12:35:34.585Z,12.73
2019-05-28T12:38:03.311Z,9.55
2019-05-28T12:40:46.541Z,9.78
2019-05-28T12:43:02.185Z,10.05
2019-05-28T12:45:35.665Z,9.68
2019-05-28T12:48:12.542Z,10.00
2019-05-28T12:50:31.565Z,10.70
2019-05-28T12:53:00.306Z,9.13
2019-05-28T12:55:29.162Z,10.72
2019-05-28T12:57:57.775Z,8.73
2019-05-28T13:00:27.528Z,8.65
2019-05-28T13:02:57.788Z,9.35
2019-05-28T13:05:28.469Z,9.53
2019-05-28T13:08:08.325Z,7.83
2019-05-28T13:10:28.010Z,9.48
2019-05-28T13:12:56.796Z,8.28
2019-05-28T13:15:25.462Z,9.73
2019-05-28T13:17:54.584Z,10.03
2019-05-28T13:20:23.266Z,8.55
2019-05-28T13:22:51.863Z,9.23
2019-05-28T13:25:20.727Z,9.38
2019-05-28T13:27:49.326Z,9.70
2019-05-28T13:30:18.983Z,9.25
2019-05-28T13:32:47.777Z,10.00
2019-05-28T13:35:17.864Z,9.70
2019-05-28T13:37:46.627Z,8.78
2019-05-28T13:40:17.987Z,9.38
2019-05-28T13:42:46.589Z,9.85
2019-05-28T13:45:16.886Z,10.50
2019-05-28T13:47:45.662Z,10.78
2019-05-28T13:50:15.568Z,10.70
2019-05-28T13:52:45.740Z,11.08
2019-05-28T13:55:14.911Z,10.78
2019-05-28T13:57:43.645Z,11.05
2019-05-28T14:00:15.151Z,10.82
2019-05-28T14:02:46.383Z,10.75
2019-05-28T14:05:15.197Z,11.80
2019-05-28T14:07:43.953Z,11.55
2019-05-28T14:10:14.393Z,12.25
2019-05-28T14:12:43.004Z,11.93
2019-05-28T14:15:12.626Z,10.48
2019-05-28T14:17:41.383Z,11.05
2019-05-28T14:20:11.808Z,11.90
2019-05-28T14:22:40.392Z,11.35
2019-05-28T14:25:10.097Z,11.73
2019-05-28T14:27:38.804Z,12.43
2019-05-28T14:30:10.115Z,11.30
2019-05-28T14:32:38.761Z,12.65
2019-05-28T14:35:07.976Z,13.32
2019-05-28T14:37:36.623Z,12.23
2019-05-28T14:40:08.987Z,12.40
2019-05-28T14:42:37.654Z,12.03
2019-05-28T14:45:08.323Z,12.20
2019-05-28T14:47:37.009Z,12.23
2019-05-28T14:50:07.742Z,12.68
2019-05-28T14:52:36.451Z,12.00
2019-05-28T14:55:08.883Z,11.60
2019-05-28T14:57:37.650Z,12.40
2019-05-28T15:00:11.031Z,11.43
2019-05-28T15:02:39.734Z,12.60
2019-05-28T15:05:09.384Z,12.70
2019-05-28T15:07:38.053Z,13.18
2019-05-28T15:10:08.392Z,12.58
2019-05-28T15:12:37.038Z,11.88
2019-05-28T15:15:07.261Z,12.40
2019-05-28T15:17:35.977Z,13.43
2019-05-28T15:20:07.144Z,12.80
2019-05-28T15:22:35.847Z,13.50
2019-05-28T15:25:06.682Z,14.40
2019-05-28T15:27:35.356Z,13.38
2019-05-28T15:30:08.106Z,14.13
2019-05-28T15:32:36.693Z,14.47
2019-05-28T15:35:07.698Z,14.07
2019-05-28T15:37:36.409Z,15.78
2019-05-28T15:40:11.209Z,15.55
2019-05-28T15:42:39.904Z,14.53
2019-05-28T15:45:09.822Z,15.35
2019-05-28T15:47:39.291Z,14.33
2019-05-28T15:50:12.459Z,12.78
2019-05-28T15:52:41.203Z,14.47
2019-05-28T15:55:10.779Z,13.72
2019-05-28T15:57:39.376Z,15.00
2019-05-28T16:00:17.035Z,14.90
2019-05-28T16:02:45.617Z,15.18
2019-05-28T16:05:14.486Z,14.18
2019-05-28T16:07:43.080Z,14.40
2019-05-28T16:10:12.172Z,15.75
2019-05-28T16:12:40.926Z,14.25
2019-05-28T16:15:10.626Z,15.58
2019-05-28T16:17:39.435Z,16.62
2019-05-28T16:20:09.291Z,22.93
2019-05-28T16:22:37.944Z,18.42
2019-05-28T16:25:10.821Z,19.32
2019-05-28T16:30:08.375Z,22.22
2019-05-28T16:32:37.105Z,21.62
2019-05-28T16:35:07.324Z,21.80
2019-05-28T16:37:35.892Z,21.82
2019-05-28T16:40:15.140Z,22.37
2019-05-28T16:42:37.021Z,21.65
2019-05-28T16:45:07.683Z,21.37
2019-05-28T16:47:36.318Z,21.93
2019-05-28T16:50:06.862Z,22.02
2019-05-28T16:52:36.604Z,22.90
2019-05-28T16:55:06.751Z,21.15
2019-05-28T16:57:35.377Z,22.05
2019-05-28T17:00:05.984Z,23.10
2019-05-28T17:02:35.181Z,23.00
2019-05-28T17:05:07.972Z,23.05
2019-05-28T17:10:06.270Z,18.07
2019-05-28T17:12:35.005Z,17.57
2019-05-28T17:15:08.693Z,17.20
2019-05-28T17:17:38.999Z,18.05
2019-05-28T17:20:09.694Z,20.02
2019-05-28T17:22:38.426Z,19.45
2019-05-28T17:25:12.116Z,18.85
2019-05-28T17:27:40.906Z,18.55
2019-05-28T17:30:22.720Z,19.75
2019-05-28T17:32:40.350Z,20.23
2019-05-28T17:35:09.310Z,21.25
2019-05-28T17:37:37.978Z,22.90
2019-05-28T17:40:07.665Z,23.07
2019-05-28T17:42:36.414Z,20.65
2019-05-28T17:45:06.987Z,21.80
2019-05-28T17:47:43.002Z,21.75
2019-05-28T17:50:09.805Z,22.52
2019-05-28T17:52:40.694Z,22.45
2019-05-28T17:55:09.565Z,24.18
2019-05-28T17:57:38.246Z,27.10
2019-05-28T18:00:07.744Z,23.50
2019-05-28T18:02:36.302Z,23.52
2019-05-28T18:05:07.078Z,24.72
2019-05-28T18:07:37.363Z,25.27
2019-05-28T18:10:11.674Z,24.52
2019-05-28T18:12:40.543Z,25.02
2019-05-28T18:15:09.475Z,25.12
2019-05-28T18:17:38.241Z,26.68
2019-05-28T18:20:10.137Z,27.55
2019-05-28T18:22:38.947Z,26.33
2019-05-28T18:25:10.174Z,26.87
2019-05-28T18:27:40.184Z,26.97
2019-05-28T18:30:09.722Z,27.27
2019-05-28T18:32:38.668Z,27.98
2019-05-28T18:35:08.666Z,27.50
2019-05-28T18:37:37.536Z,28.50
2019-05-28T18:40:11.806Z,29.75
2019-05-28T18:42:40.389Z,29.20
2019-05-28T18:45:09.742Z,29.27
2019-05-28T18:47:38.989Z,32.55
2019-05-28T18:50:09.162Z,29.82
2019-05-28T18:52:37.972Z,31.77
2019-05-28T18:55:07.578Z,32.10
2019-05-28T18:57:36.264Z,33.33
2019-05-28T19:00:08.960Z,31.70
2019-05-28T19:02:37.885Z,31.60
2019-05-28T19:05:07.884Z,32.00
2019-05-28T19:07:36.667Z,30.00
2019-05-28T19:10:07.112Z,28.55
2019-05-28T19:12:35.740Z,29.72
2019-05-28T19:15:06.854Z,31.65
2019-05-28T19:17:35.610Z,29.67
2019-05-28T19:20:06.807Z,29.92
2019-05-28T19:22:35.490Z,32.10
2019-05-28T19:25:17.092Z,33.25
2019-05-28T19:27:45.783Z,33.55
2019-05-28T19:30:16.366Z,35.40
2019-05-28T19:32:45.054Z,35.52
2019-05-28T19:35:14.029Z,34.08
2019-05-28T19:37:42.993Z,33.40
2019-05-28T19:40:12.733Z,32.88
2019-05-28T19:42:41.289Z,32.53
2019-05-28T19:45:10.312Z,33.33
2019-05-28T19:47:38.932Z,33.83
2019-05-28T19:50:08.066Z,33.53
2019-05-28T19:52:36.677Z,36.50
2019-05-28T19:55:08.049Z,40.80
2019-05-28T19:57:36.747Z,40.23
2019-05-28T20:00:08.682Z,41.02
2019-05-28T20:02:37.529Z,40.40
2019-05-28T20:05:07.965Z,43.68
2019-05-28T20:07:36.539Z,46.02
2019-05-28T20:10:08.350Z,49.93
2019-05-28T20:12:37.018Z,51.63
2019-05-28T20:15:11.652Z,49.42
2019-05-28T20:17:40.523Z,54.00
2019-05-28T20:20:11.086Z,44.40
2019-05-28T20:22:39.787Z,49.60
2019-05-28T20:25:09.143Z,50.17
2019-05-28T20:27:37.746Z,58.63
2019-05-28T20:30:09.398Z,61.65
2019-05-28T20:32:38.147Z,58.55
2019-05-28T20:35:09.633Z,43.98
2019-05-28T20:37:38.599Z,50.48
2019-05-28T20:40:10.063Z,52.93
2019-05-28T20:42:38.854Z,51.08
2019-05-28T20:45:11.881Z,53.33
2019-05-28T20:50:19.666Z,73.25
2019-05-28T20:52:48.268Z,41.48
2019-05-28T20:55:17.600Z,48.75
2019-05-28T20:57:47.077Z,43.23
2019-05-28T21:00:18.649Z,43.40
2019-05-28T21:02:47.570Z,46.15
2019-05-28T21:05:16.575Z,41.13
2019-05-28T21:07:45.315Z,37.50
2019-05-28T21:10:14.288Z,58.65
2019-05-28T21:12:44.741Z,29.80
2019-05-28T21:15:16.075Z,37.33
2019-05-28T21:17:44.242Z,44.83
2019-05-28T21:20:13.679Z,52.08
2019-05-28T21:22:42.504Z,36.03
2019-05-28T21:25:11.461Z,29.07
2019-05-28T21:27:40.087Z,25.80
2019-05-28T21:30:09.658Z,23.05
2019-05-28T21:32:38.312Z,22.90
2019-05-28T21:35:07.422Z,23.90
2019-05-28T21:37:36.257Z,23.10
2019-05-28T21:40:06.585Z,22.48
2019-05-28T21:42:35.522Z,23.60
2019-05-28T21:45:05.535Z,21.48
2019-05-28T21:47:34.256Z,19.35
2019-05-28T21:50:04.658Z,20.82
2019-05-28T21:52:33.582Z,20.72
2019-05-28T21:55:04.781Z,23.62
2019-05-28T21:57:32.642Z,22.40
2019-05-28T22:00:02.362Z,24.25
2019-05-28T22:02:33.097Z,25.05
2019-05-28T22:05:06.265Z,25.37
2019-05-28T22:07:32.192Z,24.92
2019-05-28T22:10:02.138Z,23.38
2019-05-28T22:12:31.203Z,23.62
2019-05-28T22:15:00.097Z,24.12
2019-05-28T22:17:28.853Z,25.57
2019-05-28T22:19:58.273Z,25.00
2019-05-28T22:22:26.989Z,24.40
2019-05-28T22:24:56.347Z,22.70
2019-05-28T22:27:28.284Z,23.15
2019-05-28T22:29:57.033Z,20.15
2019-05-28T22:32:27.357Z,20.57
2019-05-28T22:34:56.034Z,20.32
2019-05-28T22:37:24.757Z,20.60
2019-05-28T22:39:53.476Z,21.52
2019-05-28T22:42:22.268Z,17.30
2019-05-28T22:44:50.998Z,18.60
2019-05-28T22:47:19.815Z,17.60
2019-05-28T22:49:48.527Z,15.85
2019-05-28T22:52:17.326Z,16.17
2019-05-28T22:54:46.046Z,13.68
2019-05-28T22:57:14.772Z,12.60
2019-05-28T22:59:43.507Z,10.48
2019-05-28T23:02:12.346Z,8.45
2019-05-28T23:04:40.934Z,7.33
2019-05-28T23:07:09.648Z,8.48
2019-05-28T23:09:38.283Z,7.50
2019-05-28T23:12:08.167Z,8.60
2019-05-28T23:14:36.746Z,7.90
2019-05-28T23:17:06.323Z,7.60
2019-05-28T23:19:35.045Z,7.83
2019-05-28T23:22:04.814Z,7.97
2019-05-28T23:24:33.613Z,8.33
2019-05-28T23:27:03.456Z,8.40
2019-05-28T23:29:32.207Z,7.30
2019-05-28T23:32:01.852Z,7.87
2019-05-28T23:34:30.634Z,7.90
2019-05-28T23:36:59.290Z,7.55
2019-05-28T23:39:27.865Z,7.67
2019-05-28T23:41:56.493Z,6.62
2019-05-28T23:44:25.606Z,6.58
2019-05-28T23:46:54.280Z,7.10
2019-05-28T23:49:23.043Z,4.60
2019-05-28T23:51:51.714Z,4.22
2019-05-28T23:54:20.296Z,4.10
2019-05-28T23:56:48.979Z,4.10
2019-05-28T23:59:18.059Z,3.60
